createdAt,value
2022-12-19T00:00:45.744Z,102192.44
2022-12-19T00:03:13.494Z,102187.06
2022-12-19T00:05:41.299Z,102178.13
2022-12-19T00:08:17.200Z,102185.38
2022-12-19T00:10:45.593Z,102192.59
2022-12-19T00:13:15.482Z,102192.59
2022-12-19T00:15:43.249Z,102206.06
2022-12-19T00:18:11.155Z,102211.47
2022-12-19T00:20:38.879Z,102216.03
2022-12-19T00:23:06.603Z,102216.03
2022-12-19T00:25:53.894Z,102215.19
2022-12-19T00:28:21.572Z,102199.84
2022-12-19T00:30:49.237Z,102198.00
2022-12-19T00:33:19.201Z,102198.00
2022-12-19T00:35:46.890Z,102189.91
2022-12-19T00:38:14.729Z,102197.00
2022-12-19T00:41:37.211Z,102201.56
2022-12-19T00:44:07.090Z,102207.09
2022-12-19T00:46:35.108Z,102209.78
2022-12-19T00:49:02.823Z,102210.81
2022-12-19T00:51:31.414Z,102213.50
2022-12-19T01:08:45.026Z,102207.25
2022-12-19T01:11:14.070Z,102211.78
2022-12-19T01:13:40.729Z,102207.41
2022-12-19T01:16:10.051Z,102213.66
2022-12-19T01:18:37.822Z,102208.41
2022-12-19T01:21:06.445Z,102205.72
2022-12-19T01:23:34.050Z,102203.03
2022-12-19T01:26:39.434Z,102208.41
2022-12-19T01:29:08.447Z,102202.19
2022-12-19T01:31:36.214Z,102198.50
2022-12-19T01:34:03.987Z,102190.41
2022-12-19T01:36:31.675Z,102188.56
2022-12-19T01:38:59.417Z,102190.22
2022-12-19T01:45:15.782Z,102184.84
2022-12-19T01:47:45.733Z,102185.69
2022-12-19T01:50:16.768Z,102191.94
2022-12-19T01:52:44.381Z,102187.53
2022-12-19T02:02:15.630Z,102170.66
2022-12-19T02:04:44.715Z,102163.59
2022-12-19T02:07:16.348Z,102163.59
2022-12-19T02:13:34.389Z,102170.84
2022-12-19T02:16:03.010Z,102166.44
2022-12-19T02:18:33.087Z,102172.72
2022-12-19T02:21:19.560Z,102170.84
2022-12-19T02:24:11.404Z,102167.31
2022-12-19T02:26:45.244Z,102160.22
2022-12-19T02:29:20.262Z,102170.16
2022-12-19T02:31:49.412Z,102160.41
2022-12-19T02:34:18.879Z,102160.22
2022-12-19T02:36:48.372Z,102161.25
2022-12-19T02:39:18.668Z,102156.84
2022-12-19T02:45:22.767Z,102158.53
2022-12-19T02:47:57.698Z,102157.53
2022-12-19T02:50:27.026Z,102149.44
2022-12-19T02:52:54.841Z,102151.97
2022-12-19T02:55:23.031Z,102144.88
2022-12-19T02:58:09.444Z,102145.75
2022-12-19T03:00:37.746Z,102143.06
2022-12-19T03:03:08.385Z,102151.16
2022-12-19T03:05:36.836Z,102148.44
2022-12-19T03:08:06.318Z,102151.28
2022-12-19T03:10:35.666Z,102146.94
2022-12-19T03:13:03.654Z,102136.97
2022-12-19T03:15:31.257Z,102131.59
2022-12-19T03:17:59.307Z,102135.28
2022-12-19T03:20:30.305Z,102135.28
2022-12-19T03:22:57.936Z,102138.16
2022-12-19T03:25:25.659Z,102144.38
2022-12-19T03:27:53.282Z,102147.25
2022-12-19T03:30:21.055Z,102148.94
2022-12-19T03:32:48.720Z,102146.25
2022-12-19T03:35:17.641Z,102139.16
2022-12-19T03:37:46.686Z,102142.72
2022-12-19T03:40:29.588Z,102142.72
2022-12-19T03:43:09.835Z,102143.69
2022-12-19T03:45:42.190Z,102143.69
2022-12-19T03:48:10.373Z,102144.72
2022-12-19T03:50:39.800Z,102145.53
2022-12-19T03:53:09.817Z,102138.31
2022-12-19T03:59:09.940Z,102143.88
2022-12-19T04:01:37.656Z,102134.94
2022-12-19T04:04:05.755Z,102137.66
2022-12-19T04:06:33.840Z,102134.94
2022-12-19T04:09:02.870Z,102138.63
2022-12-19T04:15:02.418Z,102126.88
2022-12-19T04:17:31.742Z,102130.53
2022-12-19T04:20:00.959Z,102133.25
2022-12-19T04:22:30.205Z,102133.25
2022-12-19T04:25:18.035Z,102134.06
2022-12-19T04:27:46.469Z,102135.94
2022-12-19T04:30:14.355Z,102141.31
2022-12-19T04:32:46.235Z,102136.78
2022-12-19T04:35:14.323Z,102144.03
2022-12-19T04:37:42.014Z,102153.13
2022-12-19T04:40:10.140Z,102159.50
2022-12-19T04:42:39.126Z,102162.19
2022-12-19T04:45:07.499Z,102166.59
2022-12-19T04:47:35.187Z,102166.59
2022-12-19T04:50:02.901Z,102156.66
2022-12-19T04:52:30.550Z,102165.56
2022-12-19T04:54:58.218Z,102159.22
2022-12-19T04:57:25.834Z,102154.66
2022-12-19T04:59:54.856Z,102146.56
2022-12-19T05:02:22.719Z,102149.25
2022-12-19T05:04:50.613Z,102134.94
2022-12-19T05:07:18.254Z,102129.56
2022-12-19T05:09:45.962Z,102121.47
2022-12-19T05:12:13.610Z,102118.78
2022-12-19T05:14:41.208Z,102116.09
2022-12-19T05:17:10.197Z,102124.16
2022-12-19T05:19:37.817Z,102136.78
2022-12-19T05:22:05.537Z,102130.53
2022-12-19T05:24:33.155Z,102123.31
2022-12-19T05:31:10.197Z,102132.56
2022-12-19T05:33:39.308Z,102130.88
2022-12-19T05:36:08.408Z,102130.88
2022-12-19T05:38:36.190Z,102135.44
2022-12-19T05:41:49.138Z,102137.28
2022-12-19T05:44:17.078Z,102137.28
2022-12-19T05:46:45.212Z,102149.06
2022-12-19T05:49:14.586Z,102151.75
2022-12-19T05:51:42.293Z,102157.97
2022-12-19T05:54:09.953Z,102159.84
2022-12-19T05:56:56.350Z,102166.94
2022-12-19T05:59:24.110Z,102156.16
2022-12-19T06:01:51.868Z,102153.44
2022-12-19T06:04:20.934Z,102148.06
2022-12-19T06:06:48.557Z,102152.44
2022-12-19T06:09:16.195Z,102159.50
2022-12-19T06:11:45.250Z,102158.50
2022-12-19T06:14:12.879Z,102159.50
2022-12-19T06:16:40.632Z,102166.59
2022-12-19T06:19:08.454Z,102167.28
2022-12-19T06:21:39.882Z,102159.22
2022-12-19T06:24:13.253Z,102166.28
2022-12-19T06:30:03.278Z,102167.09
2022-12-19T06:32:36.202Z,102167.78
2022-12-19T06:35:05.771Z,102160.88
2022-12-19T06:37:36.867Z,102154.47
2022-12-19T06:40:07.632Z,102161.72
2022-12-19T06:42:34.334Z,102170.66
2022-12-19T06:45:01.947Z,102194.06
2022-12-19T06:47:29.550Z,102193.72
2022-12-19T06:49:57.221Z,102182.13
2022-12-19T06:52:26.065Z,102180.25
2022-12-19T06:54:55.403Z,102171.34
2022-12-19T07:00:45.228Z,102176.56
2022-12-19T07:03:13.815Z,102190.06
2022-12-19T07:05:41.478Z,102190.88
2022-12-19T07:08:09.112Z,102192.56
2022-12-19T07:10:38.240Z,102197.13
2022-12-19T07:13:05.834Z,102192.56
2022-12-19T07:15:33.480Z,102199.66
2022-12-19T07:18:01.187Z,102207.56
2022-12-19T07:20:29.295Z,102199.47
2022-12-19T07:22:56.965Z,102194.94
2022-12-19T07:25:24.628Z,102177.78
2022-12-19T07:31:43.002Z,102164.66
2022-12-19T07:34:12.128Z,102153.69
2022-12-19T07:36:39.777Z,102157.25
2022-12-19T07:39:07.504Z,102158.09
2022-12-19T07:41:50.678Z,102153.53
2022-12-19T07:44:18.637Z,102163.31
2022-12-19T07:46:46.439Z,102157.75
2022-12-19T07:49:20.993Z,102149.50
2022-12-19T07:51:50.200Z,102159.28
2022-12-19T07:54:17.944Z,102160.81
2022-12-19T08:00:18.114Z,102142.78
2022-12-19T08:02:45.897Z,102131.84
2022-12-19T08:05:15.227Z,102140.78
2022-12-19T08:07:42.851Z,102140.59
2022-12-19T08:10:12.465Z,102145.00
2022-12-19T08:12:40.107Z,102160.97
2022-12-19T08:15:08.674Z,102157.31
2022-12-19T08:17:38.724Z,102171.63
2022-12-19T08:20:07.469Z,102182.22
2022-12-19T08:22:36.592Z,102175.84
2022-12-19T08:25:04.289Z,102176.53
2022-12-19T08:28:09.272Z,102186.16
2022-12-19T08:30:39.870Z,102170.81
2022-12-19T08:33:07.683Z,102174.19
2022-12-19T08:35:35.917Z,102177.53
2022-12-19T08:38:04.933Z,102188.31
2022-12-19T08:40:34.264Z,102177.53
2022-12-19T08:47:08.750Z,102169.44
2022-12-19T08:49:36.433Z,102162.03
2022-12-19T08:52:04.719Z,102158.31
2022-12-19T08:54:34.075Z,102145.88
2022-12-19T09:00:34.678Z,102144.00
2022-12-19T09:03:02.775Z,102142.13
2022-12-19T09:06:04.534Z,102136.75
2022-12-19T09:08:19.547Z,102133.06
2022-12-19T09:10:48.554Z,102137.44
2022-12-19T09:13:16.284Z,102131.19
2022-12-19T09:15:43.966Z,102125.81
2022-12-19T09:18:12.091Z,102118.41
2022-12-19T09:20:39.779Z,102121.09
2022-12-19T09:23:07.512Z,102126.50
2022-12-19T09:25:35.139Z,102148.06
2022-12-19T09:30:55.992Z,102134.09
2022-12-19T09:33:24.302Z,102132.03
2022-12-19T09:35:52.626Z,102131.91
2022-12-19T09:38:22.386Z,102114.03
2022-12-19T09:40:53.491Z,102110.66
2022-12-19T09:46:55.490Z,102108.44
2022-12-19T09:49:24.412Z,102109.63
2022-12-19T09:51:53.908Z,102110.66
2022-12-19T09:54:24.093Z,102112.47
2022-12-19T09:57:12.082Z,102103.72
2022-12-19T09:59:45.979Z,102075.06
2022-12-19T10:02:24.299Z,102071.72
2022-12-19T10:04:58.803Z,102078.09
2022-12-19T10:08:07.078Z,102084.50
2022-12-19T10:12:34.418Z,102082.81
2022-12-19T10:13:58.185Z,102095.44
2022-12-19T10:16:27.173Z,102090.25
2022-12-19T10:18:57.333Z,102091.91
2022-12-19T10:22:07.422Z,102090.25
2022-12-19T10:24:28.801Z,102066.13
2022-12-19T10:30:49.922Z,102058.19
2022-12-19T10:33:20.754Z,102064.44
2022-12-19T10:35:53.534Z,102066.28
2022-12-19T10:38:23.417Z,102063.44
2022-12-19T10:40:52.568Z,102063.59
2022-12-19T10:43:59.758Z,102063.28
2022-12-19T10:46:32.241Z,102056.19
2022-12-19T10:48:59.896Z,102047.09
2022-12-19T10:51:31.476Z,102050.78
2022-12-19T10:54:00.267Z,102041.03
2022-12-19T10:56:36.776Z,102042.88
2022-12-19T10:59:05.710Z,102040.34
2022-12-19T11:01:37.004Z,102037.63
2022-12-19T11:04:26.834Z,102021.47
2022-12-19T11:07:06.402Z,102012.53
2022-12-19T11:09:37.249Z,102008.81
2022-12-19T11:20:45.208Z,102007.81
2022-12-19T11:28:19.844Z,102005.97
2022-12-19T11:29:30.902Z,102012.19
2022-12-19T11:29:34.917Z,102020.13
2022-12-19T11:33:13.596Z,101997.69
2022-12-19T11:35:49.735Z,101997.69
2022-12-19T11:38:18.173Z,101990.47
2022-12-19T11:40:49.648Z,101995.66
2022-12-19T11:46:40.626Z,101992.97
2022-12-19T11:49:10.692Z,102000.91
2022-12-19T11:51:41.369Z,102007.97
2022-12-19T11:54:11.166Z,102011.19
2022-12-19T11:56:41.088Z,102011.34
2022-12-19T11:59:30.664Z,102013.91
2022-12-19T12:02:12.267Z,102015.91
2022-12-19T12:04:52.981Z,102011.69
2022-12-19T12:07:28.143Z,102012.69
2022-12-19T12:12:48.330Z,102017.44
2022-12-19T12:22:07.181Z,102010.34
2022-12-19T12:27:29.833Z,101996.84
2022-12-19T12:31:05.879Z,101986.41
2022-12-19T12:31:15.728Z,101995.19
2022-12-19T12:31:50.784Z,101959.63
2022-12-19T12:31:57.749Z,101983.72
2022-12-19T12:35:38.338Z,101971.25
2022-12-19T12:38:13.785Z,101969.38
2022-12-19T12:39:33.358Z,101961.28
2022-12-19T12:42:06.903Z,101964.16
2022-12-19T12:48:09.531Z,101974.09
2022-12-19T12:50:37.886Z,101975.81
2022-12-19T12:53:07.502Z,101961.44
2022-12-19T12:55:38.063Z,101971.25
2022-12-19T12:58:09.177Z,101965.84
2022-12-19T13:00:41.902Z,101965.03
2022-12-19T13:03:12.905Z,101958.75
2022-12-19T13:05:53.996Z,101962.47
2022-12-19T13:08:25.408Z,101955.22
2022-12-19T13:10:57.414Z,101943.75
2022-12-19T13:13:38.874Z,101947.47
2022-12-19T13:16:19.619Z,101930.63
2022-12-19T13:18:50.234Z,101930.81
2022-12-19T13:21:18.511Z,101946.13
2022-12-19T13:23:46.946Z,101939.88
2022-12-19T13:26:22.338Z,101938.22
2022-12-19T13:32:14.767Z,101949.16
2022-12-19T13:35:01.718Z,101934.00
2022-12-19T13:39:55.162Z,101935.88
2022-12-19T13:40:33.077Z,101943.13
2022-12-19T13:43:27.905Z,101938.72
2022-12-19T13:45:55.744Z,101940.59
2022-12-19T13:48:28.752Z,101948.81
2022-12-19T13:50:57.823Z,101932.66
2022-12-19T13:53:26.995Z,101937.19
2022-12-19T13:55:55.108Z,101942.59
2022-12-19T14:05:34.035Z,101928.13
2022-12-19T14:08:18.482Z,101928.97
2022-12-19T14:11:40.708Z,101917.00
2022-12-19T14:14:00.470Z,101924.25
2022-12-19T14:16:39.849Z,101930.47
2022-12-19T14:19:20.373Z,101923.22
2022-12-19T14:22:04.100Z,101909.91
2022-12-19T14:24:37.551Z,101915.28
2022-12-19T14:28:19.580Z,101921.72
2022-12-19T14:33:44.186Z,101927.25
2022-12-19T14:36:21.511Z,101917.66
2022-12-19T14:39:25.272Z,101920.34
2022-12-19T14:42:02.115Z,101919.69
2022-12-19T14:52:51.018Z,101915.31
2022-12-19T14:54:14.082Z,101914.66
2022-12-19T14:54:25.925Z,101913.78
2022-12-19T14:54:33.737Z,101906.72
2022-12-19T14:59:00.804Z,101905.06
2022-12-19T15:01:28.982Z,101902.50
2022-12-19T15:04:49.632Z,101898.97
2022-12-19T15:07:08.331Z,101909.91
2022-12-19T15:10:59.361Z,101903.53
2022-12-19T15:14:50.872Z,101902.50
2022-12-19T15:15:39.566Z,101894.44
2022-12-19T15:18:21.656Z,101885.50
2022-12-19T15:20:49.352Z,101874.72
2022-12-19T15:23:21.908Z,101876.59
2022-12-19T15:26:07.641Z,101884.66
2022-12-19T15:28:38.693Z,101877.56
2022-12-19T15:31:08.251Z,101877.56
2022-12-19T15:33:48.092Z,101879.59
2022-12-19T15:36:25.784Z,101875.22
2022-12-19T15:38:54.141Z,101876.25
2022-12-19T15:41:22.055Z,101874.38
2022-12-19T15:44:05.795Z,101864.59
2022-12-19T15:46:42.974Z,101871.84
2022-12-19T15:49:15.230Z,101867.47
2022-12-19T15:51:42.992Z,101877.44
2022-12-19T15:54:46.486Z,101879.25
2022-12-19T15:56:59.344Z,101874.72
2022-12-19T16:03:27.441Z,101874.88
2022-12-19T16:05:55.922Z,101862.44
2022-12-19T16:08:26.104Z,101862.44
2022-12-19T16:11:01.530Z,101863.44
2022-12-19T16:13:44.854Z,101860.72
2022-12-19T16:16:16.059Z,101868.81
2022-12-19T16:18:45.500Z,101869.84
2022-12-19T16:21:18.313Z,101874.41
2022-12-19T16:23:46.013Z,101872.38
2022-12-19T16:26:17.335Z,101877.75
2022-12-19T16:32:17.707Z,101885.66
2022-12-19T16:34:47.425Z,101878.59
2022-12-19T16:37:16.096Z,101875.06
2022-12-19T16:39:43.763Z,101876.06
2022-12-19T16:42:15.162Z,101881.44
2022-12-19T16:44:42.887Z,101877.09
2022-12-19T16:47:12.764Z,101880.78
2022-12-19T16:49:40.435Z,101878.06
2022-12-19T16:52:10.256Z,101871.03
2022-12-19T16:54:37.916Z,101877.25
2022-12-19T16:57:07.215Z,101875.56
2022-12-19T16:59:36.554Z,101863.09
2022-12-19T17:02:06.573Z,101857.69
2022-12-19T17:04:35.005Z,101861.25
2022-12-19T17:07:06.589Z,101864.13
2022-12-19T17:09:36.324Z,101853.34
2022-12-19T17:12:04.046Z,101855.19
2022-12-19T17:14:50.776Z,101860.59
2022-12-19T17:17:18.408Z,101854.34
2022-12-19T17:19:46.765Z,101858.88
2022-12-19T17:22:14.512Z,101848.09
2022-12-19T17:24:44.720Z,101852.66
2022-12-19T17:27:12.365Z,101847.25
2022-12-19T17:30:11.718Z,101853.34
2022-12-19T17:32:39.378Z,101843.59
2022-12-19T17:35:08.755Z,101850.63
2022-12-19T17:37:36.390Z,101857.69
2022-12-19T17:40:07.534Z,101856.88
2022-12-19T17:42:37.594Z,101836.16
2022-12-19T17:52:10.452Z,101840.22
2022-12-19T17:54:38.777Z,101840.22
2022-12-19T17:57:09.305Z,101838.50
2022-12-19T18:03:12.587Z,101835.81
2022-12-19T18:05:41.096Z,101844.91
2022-12-19T18:08:15.999Z,101827.06
2022-12-19T18:10:47.778Z,101841.38
2022-12-19T18:13:16.838Z,101835.16
2022-12-19T18:16:11.819Z,101844.22
2022-12-19T18:18:39.680Z,101846.94
2022-12-19T18:21:09.871Z,101838.00
2022-12-19T18:23:37.544Z,101836.34
2022-12-19T18:26:06.801Z,101836.34
2022-12-19T18:28:35.775Z,101835.50
2022-12-19T18:31:04.672Z,101846.28
2022-12-19T18:33:37.398Z,101830.13
2022-12-19T18:36:06.043Z,101830.13
2022-12-19T18:38:33.828Z,101838.84
2022-12-19T18:41:02.270Z,101826.41
2022-12-19T18:43:32.739Z,101822.69
2022-12-19T18:49:37.295Z,101828.91
2022-12-19T18:52:05.723Z,101825.38
2022-12-19T18:54:33.383Z,101820.19
2022-12-19T18:57:01.726Z,101808.56
2022-12-19T19:02:53.109Z,101812.25
2022-12-19T19:05:23.127Z,101813.94
2022-12-19T19:07:51.578Z,101815.63
2022-12-19T19:10:19.881Z,101805.88
2022-12-19T19:12:49.898Z,101812.75
2022-12-19T19:15:18.238Z,101811.91
2022-12-19T19:17:46.829Z,101813.59
2022-12-19T19:20:15.828Z,101810.91
2022-12-19T19:22:44.902Z,101817.13
2022-12-19T19:25:13.244Z,101824.38
2022-12-19T19:27:41.104Z,101808.22
2022-12-19T19:30:10.961Z,101805.34
2022-12-19T19:32:38.714Z,101809.88
2022-12-19T19:35:08.946Z,101803.66
2022-12-19T19:37:36.599Z,101801.81
2022-12-19T19:40:06.212Z,101808.88
2022-12-19T19:42:34.553Z,101807.88
2022-12-19T19:48:35.938Z,101812.25
2022-12-19T19:51:04.327Z,101805.00
2022-12-19T19:53:32.044Z,101813.06
2022-12-19T19:56:01.339Z,101815.63
2022-12-19T19:58:30.930Z,101813.06
2022-12-19T20:01:50.498Z,101811.25
2022-12-19T20:04:19.048Z,101813.94
2022-12-19T20:06:46.709Z,101806.69
2022-12-19T20:09:15.186Z,101811.25
2022-12-19T20:11:44.384Z,101812.25
2022-12-19T20:21:17.139Z,101796.06
2022-12-19T20:23:45.518Z,101803.31
2022-12-19T20:26:13.358Z,101802.47
2022-12-19T20:28:48.306Z,101792.53
2022-12-19T20:35:32.206Z,101808.72
2022-12-19T20:38:01.760Z,101809.72
2022-12-19T20:40:30.055Z,101809.88
2022-12-19T20:42:57.740Z,101812.44
2022-12-19T20:45:27.538Z,101822.34
2022-12-19T20:47:55.354Z,101817.81
2022-12-19T20:50:23.801Z,101816.13
2022-12-19T20:52:51.446Z,101825.03
2022-12-19T20:55:19.930Z,101816.13
2022-12-19T20:57:47.600Z,101817.81
2022-12-19T21:00:16.883Z,101815.13
2022-12-19T21:03:25.861Z,101814.94
2022-12-19T21:05:34.316Z,101807.03
2022-12-19T21:08:02.031Z,101811.56
2022-12-19T21:10:30.424Z,101815.13
2022-12-19T21:12:58.118Z,101805.34
2022-12-19T21:15:46.389Z,101803.47
2022-12-19T21:18:15.441Z,101806.16
2022-12-19T21:20:54.254Z,101807.19
2022-12-19T21:23:23.191Z,101799.09
2022-12-19T21:25:51.622Z,101788.34
2022-12-19T21:28:19.455Z,101800.13
2022-12-19T21:34:22.004Z,101788.50
2022-12-19T21:36:50.330Z,101775.88
2022-12-19T21:39:20.688Z,101786.66
2022-12-19T21:41:49.057Z,101783.97
2022-12-19T21:44:16.679Z,101783.09
2022-12-19T21:46:46.024Z,101779.56
2022-12-19T21:49:13.665Z,101795.75
2022-12-19T21:51:43.300Z,101792.41
2022-12-19T21:54:10.946Z,101784.31
2022-12-19T21:56:39.668Z,101792.22
2022-12-19T21:59:07.632Z,101796.56
2022-12-19T22:01:36.190Z,101783.09
2022-12-19T22:04:04.663Z,101797.44
2022-12-19T22:06:33.172Z,101796.56
2022-12-19T22:09:02.275Z,101795.75
2022-12-19T22:11:30.836Z,101793.03
2022-12-19T22:13:59.512Z,101788.69
2022-12-19T22:20:01.021Z,101786.34
2022-12-19T22:22:29.829Z,101773.16
2022-12-19T22:24:58.882Z,101783.94
2022-12-19T22:27:27.242Z,101775.19
2022-12-19T22:30:25.838Z,101783.09
2022-12-19T22:32:54.145Z,101785.13
2022-12-19T22:35:21.789Z,101776.19
2022-12-19T22:37:50.865Z,101769.97
2022-12-19T22:40:20.055Z,101775.53
2022-12-19T22:42:48.314Z,101770.97
2022-12-19T22:45:15.983Z,101765.75
2022-12-19T22:47:44.676Z,101764.91
2022-12-19T22:50:12.379Z,101763.06
2022-12-19T22:52:40.554Z,101777.53
2022-12-19T22:55:08.511Z,101772.16
2022-12-19T22:57:38.919Z,101774.19
2022-12-19T23:00:55.169Z,101779.56
2022-12-19T23:03:23.535Z,101777.91
2022-12-19T23:05:52.160Z,101770.81
2022-12-19T23:08:20.223Z,101771.66
2022-12-19T23:10:50.783Z,101767.13
2022-12-19T23:13:19.968Z,101765.41
2022-12-19T23:15:47.564Z,101774.53
2022-12-19T23:18:15.875Z,101758.38
2022-12-19T23:20:43.585Z,101762.06
2022-12-19T23:23:11.430Z,101762.91
2022-12-19T23:25:40.556Z,101766.59
2022-12-19T23:28:08.313Z,101760.38
2022-12-19T23:30:37.301Z,101744.22
2022-12-19T23:33:04.949Z,101752.28
2022-12-19T23:35:33.124Z,101732.59
2022-12-19T23:38:01.128Z,101731.78
2022-12-19T23:40:28.745Z,101721.00
2022-12-19T23:42:56.394Z,101719.28
2022-12-19T23:45:24.310Z,101707.53
2022-12-19T23:47:54.666Z,101704.84
2022-12-19T23:50:22.318Z,101707.69
2022-12-19T23:52:49.933Z,101705.00
2022-12-19T23:55:17.667Z,101707.69
2022-12-19T23:57:45.258Z,101706.84
